createdAt,value
2023-04-25T00:01:49.483Z,9.00
2023-04-25T00:04:16.888Z,8.99
2023-04-25T00:06:43.504Z,9.02
2023-04-25T00:09:10.937Z,8.99
2023-04-25T00:11:39.016Z,8.99
2023-04-25T00:14:05.819Z,8.87
2023-04-25T00:16:34.825Z,8.87
2023-04-25T00:19:03.313Z,8.87
2023-04-25T00:21:29.837Z,8.88
2023-04-25T00:23:56.911Z,8.82
2023-04-25T00:26:23.307Z,8.80
2023-04-25T00:28:49.742Z,8.74
2023-04-25T00:31:16.127Z,8.72
2023-04-25T00:33:42.617Z,8.76
2023-04-25T00:36:09.620Z,8.72
2023-04-25T00:38:36.712Z,8.70
2023-04-25T00:41:03.260Z,8.70
2023-04-25T00:43:32.306Z,8.64
2023-04-25T00:46:01.389Z,8.51
2023-04-25T00:48:27.975Z,8.49
2023-04-25T00:50:56.112Z,8.40
2023-04-25T00:53:23.607Z,8.41
2023-04-25T00:55:52.004Z,8.39
2023-04-25T00:58:20.861Z,8.38
2023-04-25T01:00:48.875Z,8.33
2023-04-25T01:03:18.404Z,8.38
2023-04-25T01:05:44.891Z,8.34
2023-04-25T01:08:11.492Z,8.28
2023-04-25T01:10:38.138Z,8.21
2023-04-25T01:13:04.951Z,8.23
2023-04-25T01:15:31.668Z,8.19
2023-04-25T01:17:59.130Z,8.19
2023-04-25T01:20:25.972Z,8.19
2023-04-25T01:22:53.658Z,8.17
2023-04-25T01:25:20.651Z,8.17
2023-04-25T01:27:47.607Z,8.20
2023-04-25T01:30:14.948Z,8.20
2023-04-25T01:32:42.352Z,8.22
2023-04-25T01:35:10.699Z,8.23
2023-04-25T01:37:43.899Z,8.23
2023-04-25T01:40:11.999Z,8.23
2023-04-25T01:42:41.914Z,8.24
2023-04-25T01:45:09.532Z,8.21
2023-04-25T01:47:36.171Z,8.25
2023-04-25T01:50:03.795Z,8.28
2023-04-25T01:52:30.262Z,8.35
2023-04-25T01:54:58.417Z,8.29
2023-04-25T01:57:24.768Z,8.31
2023-04-25T01:59:51.347Z,8.32
2023-04-25T02:02:17.849Z,8.30
2023-04-25T02:04:44.482Z,8.26
2023-04-25T02:07:10.935Z,8.23
2023-04-25T02:09:37.267Z,8.26
2023-04-25T02:12:03.801Z,8.26
2023-04-25T02:14:30.283Z,8.26
2023-04-25T02:16:56.828Z,8.23
2023-04-25T02:19:23.471Z,8.22
2023-04-25T02:21:49.823Z,8.17
2023-04-25T02:24:16.328Z,8.09
2023-04-25T02:26:42.723Z,8.05
2023-04-25T02:29:09.073Z,7.98
2023-04-25T02:31:35.616Z,8.00
2023-04-25T02:34:02.001Z,8.08
2023-04-25T02:36:28.619Z,8.02
2023-04-25T02:38:55.081Z,7.96
2023-04-25T02:41:21.756Z,7.95
2023-04-25T02:43:48.328Z,7.96
2023-04-25T02:46:15.655Z,7.93
2023-04-25T02:48:44.434Z,7.98
2023-04-25T02:51:10.778Z,7.96
2023-04-25T02:53:37.342Z,7.99
2023-04-25T02:56:03.907Z,7.98
2023-04-25T02:58:30.515Z,7.94
2023-04-25T03:00:56.926Z,7.97
2023-04-25T03:03:23.395Z,8.07
2023-04-25T03:05:51.357Z,8.08
2023-04-25T03:08:19.025Z,8.11
2023-04-25T03:10:46.289Z,8.13
2023-04-25T03:13:12.752Z,8.16
2023-04-25T03:15:39.789Z,8.16
2023-04-25T03:18:06.160Z,8.17
2023-04-25T03:20:32.653Z,8.08
2023-04-25T03:22:59.212Z,8.13
2023-04-25T03:25:25.627Z,8.09
2023-04-25T03:27:52.022Z,8.08
2023-04-25T03:30:18.452Z,8.13
2023-04-25T03:32:44.855Z,8.19
2023-04-25T03:35:11.245Z,8.17
2023-04-25T03:37:37.666Z,8.27
2023-04-25T03:40:04.977Z,8.28
2023-04-25T03:42:31.337Z,8.27
2023-04-25T03:44:57.902Z,8.25
2023-04-25T03:47:24.322Z,8.22
2023-04-25T03:49:52.713Z,8.25
2023-04-25T03:52:19.280Z,8.29
2023-04-25T03:54:45.623Z,8.26
2023-04-25T03:57:12.057Z,8.32
2023-04-25T03:59:38.529Z,8.33
2023-04-25T04:02:04.976Z,8.29
2023-04-25T04:04:32.063Z,8.32
2023-04-25T04:06:58.607Z,8.32
2023-04-25T04:09:25.177Z,8.33
2023-04-25T04:11:51.549Z,8.32
2023-04-25T04:14:17.894Z,8.34
2023-04-25T04:16:44.250Z,8.36
2023-04-25T04:19:10.745Z,8.34
2023-04-25T04:21:37.315Z,8.36
2023-04-25T04:24:04.271Z,8.33
2023-04-25T04:26:33.100Z,8.25
2023-04-25T04:29:00.228Z,8.30
2023-04-25T04:31:26.740Z,8.29
2023-04-25T04:33:53.461Z,8.39
2023-04-25T04:36:23.913Z,8.36
2023-04-25T04:38:50.423Z,8.34
2023-04-25T04:41:17.158Z,8.25
2023-04-25T04:43:44.282Z,8.25
2023-04-25T04:46:11.314Z,8.25
2023-04-25T04:48:38.260Z,8.31
2023-04-25T04:51:04.719Z,8.39
2023-04-25T04:53:31.139Z,8.35
2023-04-25T04:55:57.507Z,8.41
2023-04-25T04:58:24.070Z,8.43
2023-04-25T05:00:50.735Z,8.47
2023-04-25T05:03:17.215Z,8.48
2023-04-25T05:05:43.791Z,8.54
2023-04-25T05:08:10.267Z,8.60
2023-04-25T05:10:36.695Z,8.60
2023-04-25T05:13:03.711Z,8.56
2023-04-25T05:15:30.828Z,8.56
2023-04-25T05:17:57.273Z,8.49
2023-04-25T05:20:23.758Z,8.53
2023-04-25T05:22:50.232Z,8.54
2023-04-25T05:25:16.575Z,8.60
2023-04-25T05:27:42.976Z,8.59
2023-04-25T05:30:10.526Z,8.63
2023-04-25T05:32:37.587Z,8.66
2023-04-25T05:35:04.529Z,8.62
2023-04-25T05:37:33.805Z,8.67
2023-04-25T05:40:00.278Z,8.70
2023-04-25T05:42:26.682Z,8.69
2023-04-25T05:44:53.159Z,8.73
2023-04-25T05:47:19.541Z,8.76
2023-04-25T05:49:46.058Z,8.80
2023-04-25T05:52:12.359Z,8.80
2023-04-25T05:54:38.740Z,8.85
2023-04-25T05:57:05.306Z,8.87
2023-04-25T05:59:31.667Z,8.90
2023-04-25T06:01:58.059Z,8.88
2023-04-25T06:04:24.927Z,8.87
2023-04-25T06:06:51.666Z,8.87
2023-04-25T06:09:18.028Z,8.87
2023-04-25T06:11:44.549Z,8.92
2023-04-25T06:14:10.969Z,8.92
2023-04-25T06:16:37.381Z,8.92
2023-04-25T06:19:03.828Z,9.05
2023-04-25T06:21:30.160Z,9.12
2023-04-25T06:23:56.554Z,9.13
2023-04-25T06:26:23.027Z,9.19
2023-04-25T06:28:49.402Z,9.25
2023-04-25T06:31:16.215Z,9.29
2023-04-25T06:33:42.751Z,9.32
2023-04-25T06:36:09.151Z,9.32
2023-04-25T06:38:36.354Z,9.30
2023-04-25T06:41:03.752Z,9.42
2023-04-25T06:43:33.955Z,9.45
2023-04-25T06:46:01.433Z,9.53
2023-04-25T06:48:28.668Z,9.64
2023-04-25T06:50:55.640Z,9.67
2023-04-25T06:53:22.047Z,9.78
2023-04-25T06:55:48.661Z,9.86
2023-04-25T06:58:15.322Z,9.90
2023-04-25T07:00:41.764Z,9.87
2023-04-25T07:03:10.219Z,9.87
2023-04-25T07:05:37.042Z,9.93
2023-04-25T07:08:04.095Z,9.98
2023-04-25T07:10:30.761Z,9.90
2023-04-25T07:12:57.174Z,10.03
2023-04-25T07:15:23.534Z,10.03
2023-04-25T07:17:49.945Z,10.09
2023-04-25T07:20:17.084Z,10.16
2023-04-25T07:22:43.947Z,10.21
2023-04-25T07:25:11.121Z,10.18
2023-04-25T07:27:37.566Z,10.17
2023-04-25T07:30:05.217Z,10.20
2023-04-25T07:32:31.671Z,10.13
2023-04-25T07:34:58.053Z,10.08
2023-04-25T07:37:24.502Z,10.02
2023-04-25T07:39:50.868Z,10.02
2023-04-25T07:42:17.212Z,10.17
2023-04-25T07:44:43.722Z,10.09
2023-04-25T07:47:11.276Z,9.93
2023-04-25T07:49:38.287Z,10.01
2023-04-25T07:52:07.175Z,9.97
2023-04-25T07:54:33.665Z,10.04
2023-04-25T07:57:00.643Z,10.04
2023-04-25T07:59:29.301Z,10.07
2023-04-25T08:01:58.210Z,10.05
2023-04-25T08:04:24.884Z,10.18
2023-04-25T08:06:51.568Z,10.48
2023-04-25T08:09:18.133Z,10.59
2023-04-25T08:11:44.738Z,10.81
2023-04-25T08:14:12.947Z,11.06
2023-04-25T08:16:39.737Z,11.08
2023-04-25T08:19:06.803Z,11.01
2023-04-25T08:21:33.947Z,11.08
2023-04-25T08:24:00.458Z,11.14
2023-04-25T08:26:26.916Z,11.10
2023-04-25T08:28:53.721Z,11.06
2023-04-25T08:31:20.393Z,10.98
2023-04-25T08:33:46.910Z,10.77
2023-04-25T08:36:15.775Z,10.57
2023-04-25T08:38:43.788Z,10.46
2023-04-25T08:41:12.651Z,10.44
2023-04-25T08:43:43.668Z,10.57
2023-04-25T08:46:10.594Z,10.56
2023-04-25T08:48:37.240Z,10.46
2023-04-25T08:53:36.259Z,10.38
2023-04-25T08:56:03.741Z,10.37
2023-04-25T08:58:30.342Z,10.35
2023-04-25T09:00:56.949Z,10.36
2023-04-25T09:03:23.693Z,10.33
2023-04-25T09:05:51.146Z,10.28
2023-04-25T09:08:17.917Z,10.21
2023-04-25T09:10:44.425Z,10.23
2023-04-25T09:13:13.910Z,10.29
2023-04-25T09:15:52.325Z,10.29
2023-04-25T09:18:30.980Z,10.32
2023-04-25T09:21:13.797Z,10.44
2023-04-25T09:23:46.764Z,10.60
2023-04-25T09:26:18.256Z,10.69
2023-04-25T09:28:44.977Z,10.67
2023-04-25T09:31:12.574Z,10.85
2023-04-25T09:33:40.297Z,11.05
2023-04-25T09:36:08.786Z,11.40
2023-04-25T09:38:45.729Z,11.38
2023-04-25T09:41:12.749Z,11.32
2023-04-25T09:43:40.426Z,11.27
2023-04-25T09:46:12.510Z,11.19
2023-04-25T09:48:39.039Z,11.19
2023-04-25T09:51:08.318Z,11.03
2023-04-25T09:53:43.310Z,11.00
2023-04-25T09:56:11.735Z,11.00
2023-04-25T09:58:40.066Z,11.03
2023-04-25T10:01:11.399Z,11.00
2023-04-25T10:03:43.400Z,11.10
2023-04-25T10:06:18.531Z,11.04
2023-04-25T10:08:45.842Z,11.04
2023-04-25T10:11:15.327Z,10.91
2023-04-25T10:13:42.655Z,10.90
2023-04-25T10:16:08.990Z,10.69
2023-04-25T10:18:35.570Z,10.80
2023-04-25T10:21:05.573Z,10.90
2023-04-25T10:23:32.732Z,10.89
2023-04-25T10:26:01.009Z,10.97
2023-04-25T10:28:27.661Z,11.04
2023-04-25T10:31:04.798Z,11.04
2023-04-25T10:33:38.832Z,11.09
2023-04-25T10:36:18.026Z,11.21
2023-04-25T10:38:45.872Z,11.60
2023-04-25T10:41:13.279Z,11.78
2023-04-25T10:43:47.129Z,11.75
2023-04-25T10:46:24.321Z,11.77
2023-04-25T10:48:51.791Z,11.61
2023-04-25T10:51:37.197Z,11.48
2023-04-25T10:54:10.169Z,11.40
2023-04-25T10:56:42.829Z,11.32
2023-04-25T10:59:17.378Z,11.27
2023-04-25T11:01:46.398Z,11.15
2023-04-25T11:04:22.816Z,11.13
2023-04-25T11:07:11.037Z,11.17
2023-04-25T11:09:41.056Z,11.17
2023-04-25T11:12:12.688Z,11.09
2023-04-25T11:17:12.050Z,11.28
2023-04-25T11:19:38.677Z,11.35
2023-04-25T11:22:05.001Z,11.51
2023-04-25T11:24:35.932Z,11.65
2023-04-25T11:27:04.938Z,11.81
2023-04-25T11:29:33.311Z,11.77
2023-04-25T11:32:01.107Z,11.88
2023-04-25T11:34:32.123Z,12.07
2023-04-25T11:36:59.384Z,11.84
2023-04-25T11:39:26.713Z,11.81
2023-04-25T11:41:54.015Z,11.79
2023-04-25T11:44:21.398Z,11.84
2023-04-25T11:46:48.466Z,11.86
2023-04-25T11:49:16.225Z,11.91
2023-04-25T11:51:44.350Z,11.93
2023-04-25T11:54:12.752Z,12.06
2023-04-25T11:56:45.783Z,12.19
2023-04-25T11:59:13.217Z,12.33
2023-04-25T12:01:49.524Z,12.56
2023-04-25T12:04:21.762Z,12.87
2023-04-25T12:06:50.817Z,13.12
2023-04-25T12:09:20.093Z,13.15
2023-04-25T12:11:54.240Z,13.31
2023-04-25T12:14:28.614Z,13.43
2023-04-25T12:17:03.597Z,13.46
2023-04-25T12:19:34.630Z,13.49
2023-04-25T12:22:01.855Z,13.62
2023-04-25T12:24:29.054Z,13.44
2023-04-25T12:27:07.332Z,13.61
2023-04-25T12:29:48.648Z,13.59
2023-04-25T12:32:16.593Z,13.43
2023-04-25T12:34:43.409Z,13.35
2023-04-25T12:37:10.164Z,13.24
2023-04-25T12:39:36.463Z,12.89
2023-04-25T12:42:03.343Z,12.87
2023-04-25T12:44:29.879Z,12.84
2023-04-25T12:46:56.473Z,12.83
2023-04-25T12:49:23.328Z,12.73
2023-04-25T12:51:49.759Z,12.64
2023-04-25T12:54:16.228Z,12.47
2023-04-25T12:56:43.170Z,12.37
2023-04-25T12:59:10.485Z,12.34
2023-04-25T13:01:37.442Z,12.20
2023-04-25T13:04:04.347Z,12.10
2023-04-25T13:06:31.790Z,12.07
2023-04-25T13:08:58.267Z,12.10
2023-04-25T13:11:24.961Z,12.06
2023-04-25T13:13:51.454Z,12.00
2023-04-25T13:16:18.530Z,11.92
2023-04-25T13:18:45.066Z,12.02
2023-04-25T13:21:14.364Z,12.27
2023-04-25T13:23:41.605Z,12.78
2023-04-25T13:26:07.907Z,12.98
2023-04-25T13:28:34.340Z,12.85
2023-04-25T13:31:00.881Z,13.06
2023-04-25T13:33:27.407Z,13.28
2023-04-25T13:35:58.177Z,13.55
2023-04-25T13:38:26.625Z,13.69
2023-04-25T13:40:53.720Z,13.71
2023-04-25T13:43:23.719Z,13.22
2023-04-25T13:45:51.262Z,12.88
2023-04-25T13:48:19.265Z,12.62
2023-04-25T13:50:46.051Z,12.45
2023-04-25T13:53:12.965Z,12.47
2023-04-25T13:55:39.943Z,12.42
2023-04-25T13:58:08.855Z,12.96
2023-04-25T14:00:40.370Z,12.96
2023-04-25T14:03:10.478Z,13.58
2023-04-25T14:05:38.928Z,13.96
2023-04-25T14:08:09.510Z,14.33
2023-04-25T14:10:36.469Z,14.61
2023-04-25T14:13:04.168Z,14.97
2023-04-25T14:15:32.970Z,14.90
2023-04-25T14:18:00.215Z,14.61
2023-04-25T14:20:27.301Z,14.28
2023-04-25T14:22:55.522Z,14.02
2023-04-25T14:25:22.190Z,13.53
2023-04-25T14:27:50.716Z,13.41
2023-04-25T14:30:22.130Z,13.17
2023-04-25T14:32:51.575Z,13.19
2023-04-25T14:35:18.711Z,13.33
2023-04-25T14:37:46.411Z,13.80
2023-04-25T14:40:16.108Z,14.08
2023-04-25T14:42:42.484Z,14.35
2023-04-25T14:45:09.669Z,14.58
2023-04-25T14:47:39.444Z,14.95
2023-04-25T14:50:09.654Z,15.08
2023-04-25T14:52:36.237Z,14.90
2023-04-25T14:55:06.472Z,14.82
2023-04-25T14:57:36.298Z,14.70
2023-04-25T15:00:06.050Z,14.44
2023-04-25T15:02:32.571Z,14.68
2023-04-25T15:04:59.411Z,14.68
2023-04-25T15:07:26.814Z,14.58
2023-04-25T15:09:54.337Z,14.52
2023-04-25T15:12:21.393Z,14.50
2023-04-25T15:14:47.964Z,14.44
2023-04-25T15:17:15.164Z,14.39
2023-04-25T15:19:41.553Z,14.25
2023-04-25T15:22:08.041Z,14.42
2023-04-25T15:24:34.434Z,14.57
2023-04-25T15:27:00.812Z,14.81
2023-04-25T15:29:28.184Z,14.92
2023-04-25T15:31:54.697Z,14.99
2023-04-25T15:34:21.275Z,15.01
2023-04-25T15:36:47.712Z,15.09
2023-04-25T15:39:14.160Z,14.78
2023-04-25T15:41:40.621Z,14.22
2023-04-25T15:44:07.896Z,13.52
2023-04-25T15:46:34.338Z,13.25
2023-04-25T15:49:00.966Z,12.81
2023-04-25T15:51:28.136Z,12.63
2023-04-25T15:53:54.691Z,12.41
2023-04-25T15:56:21.405Z,12.54
2023-04-25T15:58:48.311Z,12.81
2023-04-25T16:01:14.956Z,12.89
2023-04-25T16:03:41.566Z,12.98
2023-04-25T16:06:08.140Z,12.94
2023-04-25T16:08:35.735Z,12.94
2023-04-25T16:11:03.156Z,12.81
2023-04-25T16:13:30.317Z,12.79
2023-04-25T16:15:56.814Z,12.72
2023-04-25T16:18:23.344Z,12.71
2023-04-25T16:20:49.993Z,12.59
2023-04-25T16:23:16.369Z,12.52
2023-04-25T16:25:43.194Z,12.45
2023-04-25T16:28:09.779Z,12.54
2023-04-25T16:30:36.167Z,12.57
2023-04-25T16:33:02.652Z,12.82
2023-04-25T16:35:32.363Z,13.01
2023-04-25T16:37:58.813Z,13.03
2023-04-25T16:40:25.327Z,12.92
2023-04-25T16:42:51.688Z,12.83
2023-04-25T16:45:20.111Z,12.66
2023-04-25T16:47:46.651Z,12.53
2023-04-25T16:50:14.447Z,12.37
2023-04-25T16:52:41.887Z,12.19
2023-04-25T16:55:09.252Z,12.16
2023-04-25T16:57:38.597Z,12.23
2023-04-25T17:00:06.920Z,12.17
2023-04-25T17:02:33.593Z,12.16
2023-04-25T17:05:00.016Z,12.23
2023-04-25T17:07:26.725Z,12.28
2023-04-25T17:09:53.210Z,12.20
2023-04-25T17:12:19.919Z,12.06
2023-04-25T17:14:46.691Z,12.07
2023-04-25T17:17:13.489Z,12.02
2023-04-25T17:19:39.901Z,11.92
2023-04-25T17:22:07.206Z,11.99
2023-04-25T17:24:33.665Z,11.99
2023-04-25T17:27:00.034Z,11.94
2023-04-25T17:29:27.932Z,11.94
2023-04-25T17:31:54.448Z,11.92
2023-04-25T17:34:21.364Z,11.85
2023-04-25T17:36:48.421Z,11.87
2023-04-25T17:39:17.082Z,11.75
2023-04-25T17:41:44.444Z,11.80
2023-04-25T17:44:10.842Z,11.83
2023-04-25T17:46:37.512Z,11.76
2023-04-25T17:49:04.007Z,11.79
2023-04-25T17:51:31.457Z,11.87
2023-04-25T17:53:57.896Z,11.93
2023-04-25T17:56:27.154Z,11.86
2023-04-25T17:58:54.068Z,11.84
2023-04-25T18:01:20.870Z,11.94
2023-04-25T18:03:49.829Z,11.81
2023-04-25T18:06:16.981Z,11.83
2023-04-25T18:08:44.515Z,11.79
2023-04-25T18:11:10.940Z,11.67
2023-04-25T18:13:38.578Z,11.63
2023-04-25T18:16:05.420Z,11.55
2023-04-25T18:18:34.257Z,11.46
2023-04-25T18:21:03.867Z,11.41
2023-04-25T18:23:32.331Z,11.36
2023-04-25T18:25:58.772Z,11.35
2023-04-25T18:28:25.341Z,11.31
2023-04-25T18:30:51.779Z,11.25
2023-04-25T18:33:18.198Z,11.22
2023-04-25T18:35:51.706Z,11.20
2023-04-25T18:38:35.683Z,11.15
2023-04-25T18:41:20.648Z,11.11
2023-04-25T18:43:49.770Z,11.01
2023-04-25T18:46:17.461Z,10.93
2023-04-25T18:48:43.948Z,10.89
2023-04-25T18:51:10.555Z,10.81
2023-04-25T18:53:37.388Z,10.76
2023-04-25T18:56:04.652Z,10.71
2023-04-25T18:58:30.988Z,10.72
2023-04-25T19:00:57.407Z,10.75
2023-04-25T19:03:24.340Z,10.61
2023-04-25T19:05:50.818Z,10.54
2023-04-25T19:08:17.777Z,10.63
2023-04-25T19:10:44.588Z,10.64
2023-04-25T19:13:11.047Z,10.66
2023-04-25T19:15:37.835Z,10.61
2023-04-25T19:18:04.852Z,10.60
2023-04-25T19:20:33.210Z,10.63
2023-04-25T19:22:59.572Z,10.66
2023-04-25T19:25:26.337Z,10.54
2023-04-25T19:27:52.981Z,10.51
2023-04-25T19:30:19.842Z,10.49
2023-04-25T19:32:46.382Z,10.40
2023-04-25T19:35:13.425Z,10.42
2023-04-25T19:37:45.821Z,10.37
2023-04-25T19:40:16.548Z,10.25
2023-04-25T19:42:43.793Z,10.19
2023-04-25T19:45:11.432Z,10.10
2023-04-25T19:47:38.342Z,10.06
2023-04-25T19:50:08.614Z,10.01
2023-04-25T19:52:35.892Z,9.95
2023-04-25T19:55:04.714Z,9.87
2023-04-25T19:57:34.965Z,9.81
2023-04-25T20:00:04.874Z,9.69
2023-04-25T20:02:31.544Z,9.59
2023-04-25T20:04:58.040Z,9.65
2023-04-25T20:07:24.650Z,9.63
2023-04-25T20:09:51.011Z,9.61
2023-04-25T20:12:18.076Z,9.58
2023-04-25T20:14:45.020Z,9.43
2023-04-25T20:17:11.987Z,9.44
2023-04-25T20:19:39.161Z,9.44
2023-04-25T20:22:06.246Z,9.49
2023-04-25T20:24:32.775Z,9.40
2023-04-25T20:26:59.214Z,9.42
2023-04-25T20:29:26.404Z,9.39
2023-04-25T20:31:53.864Z,9.33
2023-04-25T20:34:21.601Z,9.29
2023-04-25T20:36:51.316Z,9.28
2023-04-25T20:39:17.726Z,9.28
2023-04-25T20:41:47.357Z,9.25
2023-04-25T20:44:13.921Z,9.20
2023-04-25T20:46:40.618Z,9.24
2023-04-25T20:49:07.667Z,9.21
2023-04-25T20:51:37.085Z,9.19
2023-04-25T20:54:06.947Z,9.09
2023-04-25T20:56:35.725Z,9.09
2023-04-25T20:59:02.085Z,9.07
2023-04-25T21:01:28.969Z,9.09
2023-04-25T21:03:55.638Z,9.08
2023-04-25T21:06:22.190Z,8.98
2023-04-25T21:08:48.854Z,9.03
2023-04-25T21:11:15.383Z,8.96
2023-04-25T21:13:41.777Z,8.97
2023-04-25T21:16:08.282Z,8.94
2023-04-25T21:18:34.796Z,8.93
2023-04-25T21:21:05.179Z,8.90
2023-04-25T21:23:32.193Z,8.89
2023-04-25T21:25:58.583Z,8.84
2023-04-25T21:28:25.063Z,8.79
2023-04-25T21:30:51.698Z,8.81
2023-04-25T21:33:18.773Z,8.72
2023-04-25T21:35:45.966Z,8.69
2023-04-25T21:38:12.763Z,8.69
2023-04-25T21:40:40.134Z,8.60
2023-04-25T21:43:06.553Z,8.49
2023-04-25T21:45:33.137Z,8.41
2023-04-25T21:47:59.603Z,8.36
2023-04-25T21:50:26.017Z,8.33
2023-04-25T21:52:54.128Z,8.25
2023-04-25T21:55:22.010Z,8.25
2023-04-25T21:57:48.410Z,8.22
2023-04-25T22:00:22.123Z,8.26
2023-04-25T22:02:48.638Z,8.29
2023-04-25T22:05:15.338Z,8.19
2023-04-25T22:07:42.476Z,8.16
2023-04-25T22:10:09.333Z,8.12
2023-04-25T22:12:35.711Z,8.08
2023-04-25T22:15:03.321Z,8.01
2023-04-25T22:17:31.189Z,8.04
2023-04-25T22:19:57.880Z,8.01
2023-04-25T22:22:24.482Z,7.92
2023-04-25T22:24:51.467Z,7.90
2023-04-25T22:27:18.416Z,7.88
2023-04-25T22:29:44.858Z,7.86
2023-04-25T22:32:11.193Z,7.84
2023-04-25T22:34:37.654Z,7.79
2023-04-25T22:37:04.711Z,7.74
2023-04-25T22:39:31.096Z,7.67
2023-04-25T22:41:58.320Z,7.62
2023-04-25T22:44:24.751Z,7.60
2023-04-25T22:46:51.086Z,7.60
2023-04-25T22:49:17.439Z,7.55
2023-04-25T22:51:44.006Z,7.51
2023-04-25T22:54:10.367Z,7.49
2023-04-25T22:56:37.748Z,7.48
2023-04-25T22:59:04.777Z,7.52
2023-04-25T23:01:31.461Z,7.52
2023-04-25T23:03:58.460Z,7.54
2023-04-25T23:06:25.093Z,7.46
2023-04-25T23:08:51.597Z,7.37
2023-04-25T23:11:18.134Z,7.35
2023-04-25T23:13:45.439Z,7.26
2023-04-25T23:16:12.689Z,7.24
2023-04-25T23:18:40.836Z,7.19
2023-04-25T23:21:09.119Z,7.13
2023-04-25T23:23:36.412Z,6.95
2023-04-25T23:26:10.153Z,6.83
2023-04-25T23:28:41.973Z,6.81
2023-04-25T23:31:10.338Z,6.78
2023-04-25T23:33:36.904Z,6.75
2023-04-25T23:36:03.602Z,6.77
2023-04-25T23:38:29.956Z,6.77
2023-04-25T23:40:56.303Z,6.77
2023-04-25T23:43:22.799Z,6.68
2023-04-25T23:45:49.378Z,6.59
2023-04-25T23:48:15.897Z,6.51
2023-04-25T23:50:42.482Z,6.41
2023-04-25T23:53:09.486Z,6.42
2023-04-25T23:55:36.129Z,6.36
2023-04-25T23:58:03.569Z,6.25
